CheckWX is a tool to help pilots better visualize weather data.  It is not intended as a substitute for an official pre-flight weather briefing.

05:16:33 UTC

KADW METAR
Joint Base Andrews Airport
Camp Springs, Maryland, USA
Current

21 mins ago

KADW 240456Z AUTO 00000KT 8SM OVC002 03/02 A3008 RMK AO2 DZE21 SLP195 P0000 T00270024 400400019 $
Observed
Feb-24 @ 04:56 UTC
Visibility
8 SM
Flight Rules
LIFR
Cloud Levels
  • Overcast at 200' AGL
Temperature
C / 37°F
Dewpoint
C / 36°F
Humidity
93%
Altimeter
30.08" Hg
Pressure
1019.5 hPa
Current Rain
0.01"
Previous

56 mins ago

KADW 240421Z AUTO 03004KT 4SM BR OVC002 03/03 A3009 RMK AO2 DZE21 PRESFR SLP199 $
Observed
Feb-24 @ 04:21 UTC
Wind
  • 030° at 4 KTS
Visibility
4 SM
Flight Rules
LIFR
Conditions
Mist
Cloud Levels
  • Overcast at 200' AGL
Temperature
C / 37°F
Dewpoint
C / 37°F
Humidity
100%
Altimeter
30.09" Hg
Pressure
1019.9 hPa
Previous

1 hour ago

KADW 240356Z AUTO 02005KT 5SM -DZ BR OVC002 03/03 A3012 RMK AO2 UPB21E28DZB28 SLP209 P0000 T00290026 $
Observed
Feb-24 @ 03:56 UTC
Wind
  • 020° at 5 KTS
Visibility
5 SM
Flight Rules
LIFR
Conditions
Light Drizzle, Mist
Cloud Levels
  • Overcast at 200' AGL
Temperature
C / 37°F
Dewpoint
C / 37°F
Humidity
100%
Altimeter
30.12" Hg
Pressure
1020.9 hPa
Current Rain
0.01"